sensor_id;sensor_type;location;lat;lon;timestamp;temperature;humidity
53294;DHT22;39181;53.440;5.644;2023-02-28T00:00:44;5.80;99.90
53294;DHT22;39181;53.440;5.644;2023-02-28T00:03:10;5.80;99.90
53294;DHT22;39181;53.440;5.644;2023-02-28T00:05:35;5.80;99.90
53294;DHT22;39181;53.440;5.644;2023-02-28T00:08:01;5.80;99.90
53294;DHT22;39181;53.440;5.644;2023-02-28T00:10:29;5.80;99.90
53294;DHT22;39181;53.440;5.644;2023-02-28T00:12:58;5.80;99.90
53294;DHT22;39181;53.440;5.644;2023-02-28T00:15:24;5.80;99.90
53294;DHT22;39181;53.440;5.644;2023-02-28T00:17:49;5.80;99.90
53294;DHT22;39181;53.440;5.644;2023-02-28T00:20:15;5.70;99.90
53294;DHT22;39181;53.440;5.644;2023-02-28T00:22:43;5.70;99.90
53294;DHT22;39181;53.440;5.644;2023-02-28T00:25:11;5.80;99.90
53294;DHT22;39181;53.440;5.644;2023-02-28T00:27:38;5.80;99.90
53294;DHT22;39181;53.440;5.644;2023-02-28T00:30:06;5.80;99.90
53294;DHT22;39181;53.440;5.644;2023-02-28T00:32:32;5.80;99.90
53294;DHT22;39181;53.440;5.644;2023-02-28T00:34:57;5.80;99.90
53294;DHT22;39181;53.440;5.644;2023-02-28T00:37:23;5.90;99.90
53294;DHT22;39181;53.440;5.644;2023-02-28T00:39:49;5.90;99.90
53294;DHT22;39181;53.440;5.644;2023-02-28T00:42:14;5.90;99.90
53294;DHT22;39181;53.440;5.644;2023-02-28T00:44:40;5.80;99.90
53294;DHT22;39181;53.440;5.644;2023-02-28T00:47:05;5.90;99.90
53294;DHT22;39181;53.440;5.644;2023-02-28T00:49:31;5.90;99.90
53294;DHT22;39181;53.440;5.644;2023-02-28T00:51:57;5.90;99.90
53294;DHT22;39181;53.440;5.644;2023-02-28T00:54:23;5.90;99.90
53294;DHT22;39181;53.440;5.644;2023-02-28T00:56:49;5.80;99.90
53294;DHT22;39181;53.440;5.644;2023-02-28T00:59:16;5.90;99.90
53294;DHT22;39181;53.440;5.644;2023-02-28T01:01:43;5.90;99.90
53294;DHT22;39181;53.440;5.644;2023-02-28T01:04:09;5.90;99.90
53294;DHT22;39181;53.440;5.644;2023-02-28T01:06:34;5.80;99.90
53294;DHT22;39181;53.440;5.644;2023-02-28T01:09:01;5.80;99.90
53294;DHT22;39181;53.440;5.644;2023-02-28T01:11:27;5.70;99.90
53294;DHT22;39181;53.440;5.644;2023-02-28T01:13:53;5.60;99.90
53294;DHT22;39181;53.440;5.644;2023-02-28T01:16:19;5.60;99.90
53294;DHT22;39181;53.440;5.644;2023-02-28T01:18:44;5.60;99.90
53294;DHT22;39181;53.440;5.644;2023-02-28T01:21:13;5.60;99.90
53294;DHT22;39181;53.440;5.644;2023-02-28T01:23:39;5.60;99.90
53294;DHT22;39181;53.440;5.644;2023-02-28T01:26:07;5.60;99.90
53294;DHT22;39181;53.440;5.644;2023-02-28T01:28:33;5.60;99.90
53294;DHT22;39181;53.440;5.644;2023-02-28T01:30:59;5.60;99.90
53294;DHT22;39181;53.440;5.644;2023-02-28T01:33:25;5.60;99.90
53294;DHT22;39181;53.440;5.644;2023-02-28T01:35:58;5.60;99.90
53294;DHT22;39181;53.440;5.644;2023-02-28T01:38:23;5.60;99.90
53294;DHT22;39181;53.440;5.644;2023-02-28T01:40:51;5.60;99.90
53294;DHT22;39181;53.440;5.644;2023-02-28T01:43:22;5.50;99.90
53294;DHT22;39181;53.440;5.644;2023-02-28T01:45:48;5.50;99.90
53294;DHT22;39181;53.440;5.644;2023-02-28T01:48:14;5.50;99.90
53294;DHT22;39181;53.440;5.644;2023-02-28T01:50:41;5.50;99.90
53294;DHT22;39181;53.440;5.644;2023-02-28T01:53:13;5.40;99.90
53294;DHT22;39181;53.440;5.644;2023-02-28T01:55:41;5.50;99.90
53294;DHT22;39181;53.440;5.644;2023-02-28T01:58:08;5.60;99.90
53294;DHT22;39181;53.440;5.644;2023-02-28T02:00:35;5.60;99.90
53294;DHT22;39181;53.440;5.644;2023-02-28T02:03:06;5.60;99.90
53294;DHT22;39181;53.440;5.644;2023-02-28T02:05:32;5.70;99.90
53294;DHT22;39181;53.440;5.644;2023-02-28T02:08:05;5.70;99.90
53294;DHT22;39181;53.440;5.644;2023-02-28T02:18:41;5.90;99.90
53294;DHT22;39181;53.440;5.644;2023-02-28T02:35:47;6.00;99.90
53294;DHT22;39181;53.440;5.644;2023-02-28T02:38:37;6.00;99.90
53294;DHT22;39181;53.440;5.644;2023-02-28T02:43:48;6.00;99.90
53294;DHT22;39181;53.440;5.644;2023-02-28T02:46:38;6.00;99.90
53294;DHT22;39181;53.440;5.644;2023-02-28T02:49:09;6.00;99.90
53294;DHT22;39181;53.440;5.644;2023-02-28T02:51:38;5.90;99.90
53294;DHT22;39181;53.440;5.644;2023-02-28T02:54:16;5.90;99.90
53294;DHT22;39181;53.440;5.644;2023-02-28T02:56:45;5.90;99.90
53294;DHT22;39181;53.440;5.644;2023-02-28T02:59:13;6.00;99.90
53294;DHT22;39181;53.440;5.644;2023-02-28T03:01:41;6.00;99.90
53294;DHT22;39181;53.440;5.644;2023-02-28T03:04:13;6.00;99.90
53294;DHT22;39181;53.440;5.644;2023-02-28T03:06:41;6.00;99.90
53294;DHT22;39181;53.440;5.644;2023-02-28T03:09:07;6.10;99.90
53294;DHT22;39181;53.440;5.644;2023-02-28T03:11:35;6.00;99.90
53294;DHT22;39181;53.440;5.644;2023-02-28T03:14:08;6.00;99.90
53294;DHT22;39181;53.440;5.644;2023-02-28T03:16:43;5.90;99.90
53294;DHT22;39181;53.440;5.644;2023-02-28T03:19:33;5.90;99.90
53294;DHT22;39181;53.440;5.644;2023-02-28T03:30:42;5.80;99.90
53294;DHT22;39181;53.440;5.644;2023-02-28T03:33:38;5.80;99.90
53294;DHT22;39181;53.440;5.644;2023-02-28T03:36:09;5.80;99.90
53294;DHT22;39181;53.440;5.644;2023-02-28T03:38:40;5.80;99.90
53294;DHT22;39181;53.440;5.644;2023-02-28T03:41:14;5.80;99.90
53294;DHT22;39181;53.440;5.644;2023-02-28T03:43:45;5.80;99.90
53294;DHT22;39181;53.440;5.644;2023-02-28T03:46:14;5.80;99.90
53294;DHT22;39181;53.440;5.644;2023-02-28T03:48:55;5.80;99.90
53294;DHT22;39181;53.440;5.644;2023-02-28T03:51:22;6.00;99.90
53294;DHT22;39181;53.440;5.644;2023-02-28T03:53:54;6.00;99.90
53294;DHT22;39181;53.440;5.644;2023-02-28T03:56:31;6.00;99.90
53294;DHT22;39181;53.440;5.644;2023-02-28T03:59:06;5.90;99.90
53294;DHT22;39181;53.440;5.644;2023-02-28T04:04:01;5.80;99.90
53294;DHT22;39181;53.440;5.644;2023-02-28T04:06:31;5.80;99.90
53294;DHT22;39181;53.440;5.644;2023-02-28T04:08:57;5.80;99.90
53294;DHT22;39181;53.440;5.644;2023-02-28T04:13:52;5.80;99.90
53294;DHT22;39181;53.440;5.644;2023-02-28T04:16:18;5.80;99.90
53294;DHT22;39181;53.440;5.644;2023-02-28T04:18:44;5.80;99.90
53294;DHT22;39181;53.440;5.644;2023-02-28T04:21:10;5.90;99.90
53294;DHT22;39181;53.440;5.644;2023-02-28T04:23:36;5.90;99.90
53294;DHT22;39181;53.440;5.644;2023-02-28T04:26:01;6.00;99.90
53294;DHT22;39181;53.440;5.644;2023-02-28T04:28:27;6.00;99.90
53294;DHT22;39181;53.440;5.644;2023-02-28T04:31:05;6.00;99.90
53294;DHT22;39181;53.440;5.644;2023-02-28T04:33:32;5.90;99.90
53294;DHT22;39181;53.440;5.644;2023-02-28T04:36:01;6.00;99.90
53294;DHT22;39181;53.440;5.644;2023-02-28T04:38:28;6.10;99.90
53294;DHT22;39181;53.440;5.644;2023-02-28T04:40:57;6.20;99.90
53294;DHT22;39181;53.440;5.644;2023-02-28T04:43:22;6.20;99.90
53294;DHT22;39181;53.440;5.644;2023-02-28T04:45:48;6.10;99.90
53294;DHT22;39181;53.440;5.644;2023-02-28T04:48:13;6.20;99.90
53294;DHT22;39181;53.440;5.644;2023-02-28T04:50:39;6.30;99.90
53294;DHT22;39181;53.440;5.644;2023-02-28T04:53:04;6.20;99.90
53294;DHT22;39181;53.440;5.644;2023-02-28T04:55:30;6.20;99.90
53294;DHT22;39181;53.440;5.644;2023-02-28T04:57:56;6.20;99.90
53294;DHT22;39181;53.440;5.644;2023-02-28T05:00:21;6.20;99.90
53294;DHT22;39181;53.440;5.644;2023-02-28T05:02:47;6.30;99.90
53294;DHT22;39181;53.440;5.644;2023-02-28T05:05:12;6.30;99.90
53294;DHT22;39181;53.440;5.644;2023-02-28T05:07:43;6.30;99.90
53294;DHT22;39181;53.440;5.644;2023-02-28T05:10:10;6.30;99.90
53294;DHT22;39181;53.440;5.644;2023-02-28T05:12:35;6.30;99.90
53294;DHT22;39181;53.440;5.644;2023-02-28T05:15:01;6.30;99.90
53294;DHT22;39181;53.440;5.644;2023-02-28T05:17:28;6.40;99.90
53294;DHT22;39181;53.440;5.644;2023-02-28T05:19:53;6.40;99.90
53294;DHT22;39181;53.440;5.644;2023-02-28T05:22:19;6.40;99.90
53294;DHT22;39181;53.440;5.644;2023-02-28T05:24:44;6.40;99.90
53294;DHT22;39181;53.440;5.644;2023-02-28T05:27:11;6.40;99.90
53294;DHT22;39181;53.440;5.644;2023-02-28T05:29:36;6.30;99.90
53294;DHT22;39181;53.440;5.644;2023-02-28T05:32:09;6.30;99.90
53294;DHT22;39181;53.440;5.644;2023-02-28T05:34:36;6.30;99.90
53294;DHT22;39181;53.440;5.644;2023-02-28T05:37:02;6.40;99.90
53294;DHT22;39181;53.440;5.644;2023-02-28T05:39:28;6.40;99.90
53294;DHT22;39181;53.440;5.644;2023-02-28T05:41:53;6.40;99.90
53294;DHT22;39181;53.440;5.644;2023-02-28T05:44:19;6.40;99.90
53294;DHT22;39181;53.440;5.644;2023-02-28T05:46:44;6.40;99.90
53294;DHT22;39181;53.440;5.644;2023-02-28T05:49:10;6.40;99.90
53294;DHT22;39181;53.440;5.644;2023-02-28T05:51:35;6.30;99.90
53294;DHT22;39181;53.440;5.644;2023-02-28T05:54:05;6.40;99.90
53294;DHT22;39181;53.440;5.644;2023-02-28T05:56:31;6.50;99.90
53294;DHT22;39181;53.440;5.644;2023-02-28T05:58:57;6.50;99.90
53294;DHT22;39181;53.440;5.644;2023-02-28T06:03:58;6.50;99.90
53294;DHT22;39181;53.440;5.644;2023-02-28T06:06:24;6.50;99.90
53294;DHT22;39181;53.440;5.644;2023-02-28T06:08:49;6.40;99.90
53294;DHT22;39181;53.440;5.644;2023-02-28T06:11:15;6.50;99.90
53294;DHT22;39181;53.440;5.644;2023-02-28T06:13:41;6.40;99.90
53294;DHT22;39181;53.440;5.644;2023-02-28T06:16:09;6.40;99.90
53294;DHT22;39181;53.440;5.644;2023-02-28T06:18:35;6.40;99.90
53294;DHT22;39181;53.440;5.644;2023-02-28T06:21:01;6.40;99.90
53294;DHT22;39181;53.440;5.644;2023-02-28T06:23:26;6.40;99.90
53294;DHT22;39181;53.440;5.644;2023-02-28T06:25:52;6.40;99.90
53294;DHT22;39181;53.440;5.644;2023-02-28T06:28:18;6.40;99.90
53294;DHT22;39181;53.440;5.644;2023-02-28T06:30:44;6.30;99.90
53294;DHT22;39181;53.440;5.644;2023-02-28T06:33:09;6.30;99.90
53294;DHT22;39181;53.440;5.644;2023-02-28T06:35:35;6.30;99.90
53294;DHT22;39181;53.440;5.644;2023-02-28T06:38:01;6.30;99.90
53294;DHT22;39181;53.440;5.644;2023-02-28T06:40:27;6.20;99.90
53294;DHT22;39181;53.440;5.644;2023-02-28T06:42:52;6.30;99.90
53294;DHT22;39181;53.440;5.644;2023-02-28T06:45:18;6.30;99.90
53294;DHT22;39181;53.440;5.644;2023-02-28T06:47:43;6.30;99.90
53294;DHT22;39181;53.440;5.644;2023-02-28T06:50:11;6.30;99.90
53294;DHT22;39181;53.440;5.644;2023-02-28T06:52:36;6.30;99.90
53294;DHT22;39181;53.440;5.644;2023-02-28T06:55:06;6.30;99.90
53294;DHT22;39181;53.440;5.644;2023-02-28T06:57:34;6.30;99.90
53294;DHT22;39181;53.440;5.644;2023-02-28T07:00:01;6.30;99.90
53294;DHT22;39181;53.440;5.644;2023-02-28T07:02:28;6.30;99.90
53294;DHT22;39181;53.440;5.644;2023-02-28T07:04:54;6.30;99.90
53294;DHT22;39181;53.440;5.644;2023-02-28T07:07:19;6.30;99.90
53294;DHT22;39181;53.440;5.644;2023-02-28T07:09:45;6.30;99.90
53294;DHT22;39181;53.440;5.644;2023-02-28T07:12:11;6.20;99.90
53294;DHT22;39181;53.440;5.644;2023-02-28T07:14:37;6.30;99.90
53294;DHT22;39181;53.440;5.644;2023-02-28T07:17:02;6.30;99.90
53294;DHT22;39181;53.440;5.644;2023-02-28T07:19:28;6.30;99.90
53294;DHT22;39181;53.440;5.644;2023-02-28T07:21:54;6.30;99.90
53294;DHT22;39181;53.440;5.644;2023-02-28T07:24:20;6.30;99.90
53294;DHT22;39181;53.440;5.644;2023-02-28T07:26:46;6.30;99.90
53294;DHT22;39181;53.440;5.644;2023-02-28T07:29:11;6.30;99.90
53294;DHT22;39181;53.440;5.644;2023-02-28T07:31:37;6.30;99.90
53294;DHT22;39181;53.440;5.644;2023-02-28T07:34:03;6.30;99.90
53294;DHT22;39181;53.440;5.644;2023-02-28T07:36:28;6.30;99.90
53294;DHT22;39181;53.440;5.644;2023-02-28T07:38:54;6.30;99.90
53294;DHT22;39181;53.440;5.644;2023-02-28T07:41:21;6.30;99.90
53294;DHT22;39181;53.440;5.644;2023-02-28T07:43:48;6.30;99.90
53294;DHT22;39181;53.440;5.644;2023-02-28T07:46:15;6.30;99.90
53294;DHT22;39181;53.440;5.644;2023-02-28T07:48:41;6.30;99.90
53294;DHT22;39181;53.440;5.644;2023-02-28T07:51:07;6.30;99.90
53294;DHT22;39181;53.440;5.644;2023-02-28T07:53:33;6.30;99.90
53294;DHT22;39181;53.440;5.644;2023-02-28T07:56:01;6.30;99.90
53294;DHT22;39181;53.440;5.644;2023-02-28T07:58:28;6.30;99.90
53294;DHT22;39181;53.440;5.644;2023-02-28T08:00:54;6.30;99.90
53294;DHT22;39181;53.440;5.644;2023-02-28T08:03:21;6.30;99.90
53294;DHT22;39181;53.440;5.644;2023-02-28T08:05:47;6.30;99.90
53294;DHT22;39181;53.440;5.644;2023-02-28T08:08:14;6.30;99.90
53294;DHT22;39181;53.440;5.644;2023-02-28T08:10:40;6.20;99.90
53294;DHT22;39181;53.440;5.644;2023-02-28T08:13:06;6.20;99.90
53294;DHT22;39181;53.440;5.644;2023-02-28T08:15:32;6.10;99.90
53294;DHT22;39181;53.440;5.644;2023-02-28T08:17:57;6.10;99.90
53294;DHT22;39181;53.440;5.644;2023-02-28T08:20:24;6.10;99.90
53294;DHT22;39181;53.440;5.644;2023-02-28T08:22:50;6.10;99.90
53294;DHT22;39181;53.440;5.644;2023-02-28T08:25:15;6.10;99.90
53294;DHT22;39181;53.440;5.644;2023-02-28T08:27:41;6.00;99.90
53294;DHT22;39181;53.440;5.644;2023-02-28T08:30:08;6.00;99.90
53294;DHT22;39181;53.440;5.644;2023-02-28T08:32:35;5.90;99.90
53294;DHT22;39181;53.440;5.644;2023-02-28T08:35:00;5.90;99.90
53294;DHT22;39181;53.440;5.644;2023-02-28T08:37:27;5.90;99.90
53294;DHT22;39181;53.440;5.644;2023-02-28T08:39:52;5.90;99.90
53294;DHT22;39181;53.440;5.644;2023-02-28T08:42:18;5.90;99.90
53294;DHT22;39181;53.440;5.644;2023-02-28T08:44:43;5.90;99.90
53294;DHT22;39181;53.440;5.644;2023-02-28T08:47:09;6.00;99.90
53294;DHT22;39181;53.440;5.644;2023-02-28T08:49:34;6.00;99.90
53294;DHT22;39181;53.440;5.644;2023-02-28T08:52:00;6.00;99.90
53294;DHT22;39181;53.440;5.644;2023-02-28T08:54:26;6.00;99.90
53294;DHT22;39181;53.440;5.644;2023-02-28T08:56:54;6.00;99.90
53294;DHT22;39181;53.440;5.644;2023-02-28T08:59:19;6.00;99.90
53294;DHT22;39181;53.440;5.644;2023-02-28T09:01:45;6.00;99.90
53294;DHT22;39181;53.440;5.644;2023-02-28T09:04:11;6.00;99.90
53294;DHT22;39181;53.440;5.644;2023-02-28T09:06:37;6.00;99.90
53294;DHT22;39181;53.440;5.644;2023-02-28T09:09:03;6.20;99.90
53294;DHT22;39181;53.440;5.644;2023-02-28T09:11:31;6.10;99.90
53294;DHT22;39181;53.440;5.644;2023-02-28T09:13:58;6.20;99.90
53294;DHT22;39181;53.440;5.644;2023-02-28T09:16:25;6.10;99.90
53294;DHT22;39181;53.440;5.644;2023-02-28T09:18:51;6.10;99.90
53294;DHT22;39181;53.440;5.644;2023-02-28T09:21:18;6.00;99.90
53294;DHT22;39181;53.440;5.644;2023-02-28T09:23:45;6.00;99.90
53294;DHT22;39181;53.440;5.644;2023-02-28T09:26:25;5.90;99.90
53294;DHT22;39181;53.440;5.644;2023-02-28T09:28:52;5.90;99.90
53294;DHT22;39181;53.440;5.644;2023-02-28T09:31:21;5.90;99.90
53294;DHT22;39181;53.440;5.644;2023-02-28T09:33:48;5.90;99.90
53294;DHT22;39181;53.440;5.644;2023-02-28T09:36:14;6.00;99.90
53294;DHT22;39181;53.440;5.644;2023-02-28T09:38:40;5.90;99.90
53294;DHT22;39181;53.440;5.644;2023-02-28T09:41:20;5.90;99.90
53294;DHT22;39181;53.440;5.644;2023-02-28T09:43:52;5.90;99.90
53294;DHT22;39181;53.440;5.644;2023-02-28T09:46:27;5.90;99.90
53294;DHT22;39181;53.440;5.644;2023-02-28T09:48:53;5.90;99.90
53294;DHT22;39181;53.440;5.644;2023-02-28T09:51:34;6.00;99.90
53294;DHT22;39181;53.440;5.644;2023-02-28T09:54:03;6.10;99.90
53294;DHT22;39181;53.440;5.644;2023-02-28T09:56:41;6.10;99.90
53294;DHT22;39181;53.440;5.644;2023-02-28T10:01:54;6.30;99.90
53294;DHT22;39181;53.440;5.644;2023-02-28T10:07:46;6.70;99.90
53294;DHT22;39181;53.440;5.644;2023-02-28T10:10:34;6.80;99.90
53294;DHT22;39181;53.440;5.644;2023-02-28T10:13:03;6.90;99.90
53294;DHT22;39181;53.440;5.644;2023-02-28T10:15:31;6.90;99.90
53294;DHT22;39181;53.440;5.644;2023-02-28T10:18:01;7.00;99.90
53294;DHT22;39181;53.440;5.644;2023-02-28T10:20:31;7.20;99.90
53294;DHT22;39181;53.440;5.644;2023-02-28T10:23:13;7.20;99.90
53294;DHT22;39181;53.440;5.644;2023-02-28T10:25:44;7.30;99.90
53294;DHT22;39181;53.440;5.644;2023-02-28T10:28:14;7.20;99.90
53294;DHT22;39181;53.440;5.644;2023-02-28T10:30:43;7.20;99.90
53294;DHT22;39181;53.440;5.644;2023-02-28T10:33:19;7.30;99.90
53294;DHT22;39181;53.440;5.644;2023-02-28T10:35:45;7.50;99.90
53294;DHT22;39181;53.440;5.644;2023-02-28T10:38:43;7.60;99.90
53294;DHT22;39181;53.440;5.644;2023-02-28T10:41:10;7.70;99.90
53294;DHT22;39181;53.440;5.644;2023-02-28T10:43:37;7.60;99.90
53294;DHT22;39181;53.440;5.644;2023-02-28T10:48:38;7.70;99.90
53294;DHT22;39181;53.440;5.644;2023-02-28T10:51:07;7.60;99.90
53294;DHT22;39181;53.440;5.644;2023-02-28T10:53:37;7.70;99.90
53294;DHT22;39181;53.440;5.644;2023-02-28T11:03:47;7.80;99.90
53294;DHT22;39181;53.440;5.644;2023-02-28T11:06:19;7.80;99.90
53294;DHT22;39181;53.440;5.644;2023-02-28T11:09:03;7.80;99.90
53294;DHT22;39181;53.440;5.644;2023-02-28T11:11:40;7.90;99.90
53294;DHT22;39181;53.440;5.644;2023-02-28T11:14:24;7.90;99.90
53294;DHT22;39181;53.440;5.644;2023-02-28T11:16:52;7.90;99.90
53294;DHT22;39181;53.440;5.644;2023-02-28T11:19:25;8.00;99.90
53294;DHT22;39181;53.440;5.644;2023-02-28T11:22:01;8.10;99.90
53294;DHT22;39181;53.440;5.644;2023-02-28T11:24:35;8.10;99.90
53294;DHT22;39181;53.440;5.644;2023-02-28T11:27:01;8.20;99.90
53294;DHT22;39181;53.440;5.644;2023-02-28T11:29:32;8.20;99.90
53294;DHT22;39181;53.440;5.644;2023-02-28T11:32:19;8.20;99.90
53294;DHT22;39181;53.440;5.644;2023-02-28T11:34:47;8.20;99.90
53294;DHT22;39181;53.440;5.644;2023-02-28T11:37:27;8.10;99.90
53294;DHT22;39181;53.440;5.644;2023-02-28T11:39:54;8.20;99.90
53294;DHT22;39181;53.440;5.644;2023-02-28T11:45:12;8.20;99.90
53294;DHT22;39181;53.440;5.644;2023-02-28T11:52:57;8.20;99.90
53294;DHT22;39181;53.440;5.644;2023-02-28T11:55:35;8.40;99.90
53294;DHT22;39181;53.440;5.644;2023-02-28T12:01:03;8.40;99.90
53294;DHT22;39181;53.440;5.644;2023-02-28T12:06:30;8.50;99.90
53294;DHT22;39181;53.440;5.644;2023-02-28T12:11:48;8.60;99.90
53294;DHT22;39181;53.440;5.644;2023-02-28T12:19:24;8.50;99.90
53294;DHT22;39181;53.440;5.644;2023-02-28T12:27:14;8.70;99.90
53294;DHT22;39181;53.440;5.644;2023-02-28T12:29:51;8.70;99.90
53294;DHT22;39181;53.440;5.644;2023-02-28T12:32:35;8.80;99.90
53294;DHT22;39181;53.440;5.644;2023-02-28T12:35:13;8.90;99.90
53294;DHT22;39181;53.440;5.644;2023-02-28T12:37:57;8.90;99.90
53294;DHT22;39181;53.440;5.644;2023-02-28T12:40:29;8.90;99.90
53294;DHT22;39181;53.440;5.644;2023-02-28T12:43:02;9.00;99.90
53294;DHT22;39181;53.440;5.644;2023-02-28T12:48:08;9.00;99.90
53294;DHT22;39181;53.440;5.644;2023-02-28T12:50:36;9.00;99.90
53294;DHT22;39181;53.440;5.644;2023-02-28T12:53:08;8.90;99.90
53294;DHT22;39181;53.440;5.644;2023-02-28T12:58:14;8.90;99.90
53294;DHT22;39181;53.440;5.644;2023-02-28T13:01:04;8.90;99.90
53294;DHT22;39181;53.440;5.644;2023-02-28T13:06:52;8.80;99.90
53294;DHT22;39181;53.440;5.644;2023-02-28T13:09:23;9.00;99.90
53294;DHT22;39181;53.440;5.644;2023-02-28T13:11:50;9.10;99.90
53294;DHT22;39181;53.440;5.644;2023-02-28T13:14:36;9.10;99.90
53294;DHT22;39181;53.440;5.644;2023-02-28T13:19:45;9.30;99.90
53294;DHT22;39181;53.440;5.644;2023-02-28T13:22:20;9.20;99.90
53294;DHT22;39181;53.440;5.644;2023-02-28T13:24:53;9.10;99.90
53294;DHT22;39181;53.440;5.644;2023-02-28T13:27:31;9.10;99.90
53294;DHT22;39181;53.440;5.644;2023-02-28T13:29:57;8.90;99.90
53294;DHT22;39181;53.440;5.644;2023-02-28T13:39:55;9.70;99.90
53294;DHT22;39181;53.440;5.644;2023-02-28T13:42:36;10.00;99.90
53294;DHT22;39181;53.440;5.644;2023-02-28T13:50:28;10.50;99.90
53294;DHT22;39181;53.440;5.644;2023-02-28T13:53:28;10.60;99.90
53294;DHT22;39181;53.440;5.644;2023-02-28T13:56:19;10.60;99.90
53294;DHT22;39181;53.440;5.644;2023-02-28T13:58:55;10.70;99.90
53294;DHT22;39181;53.440;5.644;2023-02-28T14:06:54;10.20;99.90
53294;DHT22;39181;53.440;5.644;2023-02-28T14:09:28;10.10;99.90
53294;DHT22;39181;53.440;5.644;2023-02-28T14:11:54;10.00;99.90
53294;DHT22;39181;53.440;5.644;2023-02-28T14:17:15;9.50;99.90
53294;DHT22;39181;53.440;5.644;2023-02-28T14:19:45;9.50;99.90
53294;DHT22;39181;53.440;5.644;2023-02-28T14:22:41;9.40;99.90
53294;DHT22;39181;53.440;5.644;2023-02-28T14:25:16;9.50;99.90
53294;DHT22;39181;53.440;5.644;2023-02-28T14:33:25;9.50;99.90
53294;DHT22;39181;53.440;5.644;2023-02-28T14:36:20;9.40;99.90
53294;DHT22;39181;53.440;5.644;2023-02-28T14:38:50;9.10;99.90
53294;DHT22;39181;53.440;5.644;2023-02-28T14:41:37;8.90;99.90
53294;DHT22;39181;53.440;5.644;2023-02-28T14:46:40;9.00;99.90
53294;DHT22;39181;53.440;5.644;2023-02-28T14:49:15;9.10;99.90
53294;DHT22;39181;53.440;5.644;2023-02-28T14:51:42;8.80;99.90
53294;DHT22;39181;53.440;5.644;2023-02-28T14:54:14;8.80;99.90
53294;DHT22;39181;53.440;5.644;2023-02-28T14:56:41;8.70;99.90
53294;DHT22;39181;53.440;5.644;2023-02-28T14:59:30;8.50;99.90
53294;DHT22;39181;53.440;5.644;2023-02-28T15:04:57;8.10;99.90
53294;DHT22;39181;53.440;5.644;2023-02-28T15:07:23;7.90;99.90
53294;DHT22;39181;53.440;5.644;2023-02-28T15:10:21;7.80;99.90
53294;DHT22;39181;53.440;5.644;2023-02-28T15:15:16;7.30;99.90
53294;DHT22;39181;53.440;5.644;2023-02-28T15:17:53;7.30;99.90
53294;DHT22;39181;53.440;5.644;2023-02-28T15:20:22;7.20;99.90
53294;DHT22;39181;53.440;5.644;2023-02-28T15:22:50;7.20;99.90
53294;DHT22;39181;53.440;5.644;2023-02-28T15:25:19;7.30;99.90
53294;DHT22;39181;53.440;5.644;2023-02-28T15:27:49;7.30;99.90
53294;DHT22;39181;53.440;5.644;2023-02-28T15:30:27;7.20;99.90
53294;DHT22;39181;53.440;5.644;2023-02-28T15:33:26;7.10;99.90
53294;DHT22;39181;53.440;5.644;2023-02-28T15:36:14;7.10;99.90
53294;DHT22;39181;53.440;5.644;2023-02-28T15:38:40;7.00;99.90
53294;DHT22;39181;53.440;5.644;2023-02-28T15:41:34;6.90;99.90
53294;DHT22;39181;53.440;5.644;2023-02-28T15:44:16;6.80;99.90
53294;DHT22;39181;53.440;5.644;2023-02-28T15:46:53;6.70;99.90
53294;DHT22;39181;53.440;5.644;2023-02-28T15:49:21;6.70;99.90
53294;DHT22;39181;53.440;5.644;2023-02-28T15:51:49;6.70;99.90
53294;DHT22;39181;53.440;5.644;2023-02-28T15:54:23;6.60;99.90
53294;DHT22;39181;53.440;5.644;2023-02-28T15:56:55;6.60;99.90
53294;DHT22;39181;53.440;5.644;2023-02-28T15:59:23;6.70;99.90
53294;DHT22;39181;53.440;5.644;2023-02-28T16:04:34;6.70;99.90
53294;DHT22;39181;53.440;5.644;2023-02-28T16:07:02;6.70;99.90
53294;DHT22;39181;53.440;5.644;2023-02-28T16:09:30;6.60;99.90
53294;DHT22;39181;53.440;5.644;2023-02-28T16:12:00;6.70;99.90
53294;DHT22;39181;53.440;5.644;2023-02-28T16:14:28;6.70;99.90
53294;DHT22;39181;53.440;5.644;2023-02-28T16:16:57;6.60;99.90
53294;DHT22;39181;53.440;5.644;2023-02-28T16:19:27;6.50;99.90
53294;DHT22;39181;53.440;5.644;2023-02-28T16:21:53;6.40;99.90
53294;DHT22;39181;53.440;5.644;2023-02-28T16:24:19;6.30;99.90
53294;DHT22;39181;53.440;5.644;2023-02-28T16:26:46;6.20;99.90
53294;DHT22;39181;53.440;5.644;2023-02-28T16:29:31;6.20;99.90
53294;DHT22;39181;53.440;5.644;2023-02-28T16:31:57;6.10;99.90
53294;DHT22;39181;53.440;5.644;2023-02-28T16:34:23;6.00;99.90
53294;DHT22;39181;53.440;5.644;2023-02-28T16:36:50;6.00;99.90
53294;DHT22;39181;53.440;5.644;2023-02-28T16:39:16;5.80;99.90
53294;DHT22;39181;53.440;5.644;2023-02-28T16:41:44;5.70;99.90
53294;DHT22;39181;53.440;5.644;2023-02-28T16:44:25;6.20;99.90
53294;DHT22;39181;53.440;5.644;2023-02-28T16:46:51;5.60;99.90
53294;DHT22;39181;53.440;5.644;2023-02-28T16:49:17;5.50;99.90
53294;DHT22;39181;53.440;5.644;2023-02-28T16:51:42;5.50;99.90
53294;DHT22;39181;53.440;5.644;2023-02-28T16:54:08;5.40;99.90
53294;DHT22;39181;53.440;5.644;2023-02-28T16:56:34;5.40;99.90
53294;DHT22;39181;53.440;5.644;2023-02-28T16:59:01;5.40;99.90
53294;DHT22;39181;53.440;5.644;2023-02-28T17:01:27;5.30;99.90
53294;DHT22;39181;53.440;5.644;2023-02-28T17:03:54;5.30;99.90
53294;DHT22;39181;53.440;5.644;2023-02-28T17:06:23;5.30;99.90
53294;DHT22;39181;53.440;5.644;2023-02-28T17:08:50;5.30;99.90
53294;DHT22;39181;53.440;5.644;2023-02-28T17:11:16;5.20;99.90
53294;DHT22;39181;53.440;5.644;2023-02-28T17:13:42;5.10;99.90
53294;DHT22;39181;53.440;5.644;2023-02-28T17:16:29;5.00;99.90
53294;DHT22;39181;53.440;5.644;2023-02-28T17:19:04;4.90;99.90
53294;DHT22;39181;53.440;5.644;2023-02-28T17:21:31;4.80;99.90
53294;DHT22;39181;53.440;5.644;2023-02-28T17:23:57;4.70;99.90
53294;DHT22;39181;53.440;5.644;2023-02-28T17:26:23;4.60;99.90
53294;DHT22;39181;53.440;5.644;2023-02-28T17:28:51;4.50;99.90
53294;DHT22;39181;53.440;5.644;2023-02-28T17:31:18;4.40;99.90
53294;DHT22;39181;53.440;5.644;2023-02-28T17:33:44;4.40;99.90
53294;DHT22;39181;53.440;5.644;2023-02-28T17:36:29;4.30;99.90
53294;DHT22;39181;53.440;5.644;2023-02-28T17:38:56;4.20;99.90
53294;DHT22;39181;53.440;5.644;2023-02-28T17:41:21;4.10;99.90
53294;DHT22;39181;53.440;5.644;2023-02-28T17:43:47;4.00;99.90
53294;DHT22;39181;53.440;5.644;2023-02-28T17:46:21;4.00;99.90
53294;DHT22;39181;53.440;5.644;2023-02-28T17:48:51;3.90;99.90
53294;DHT22;39181;53.440;5.644;2023-02-28T17:51:18;3.80;99.90
53294;DHT22;39181;53.440;5.644;2023-02-28T17:53:44;3.80;99.90
53294;DHT22;39181;53.440;5.644;2023-02-28T17:56:16;3.80;99.90
53294;DHT22;39181;53.440;5.644;2023-02-28T17:58:42;3.70;99.90
53294;DHT22;39181;53.440;5.644;2023-02-28T18:01:08;3.70;99.90
53294;DHT22;39181;53.440;5.644;2023-02-28T18:03:33;3.60;99.90
53294;DHT22;39181;53.440;5.644;2023-02-28T18:06:00;3.60;99.90
53294;DHT22;39181;53.440;5.644;2023-02-28T18:08:25;3.50;99.90
53294;DHT22;39181;53.440;5.644;2023-02-28T18:10:51;3.50;99.90
53294;DHT22;39181;53.440;5.644;2023-02-28T18:13:17;3.40;99.90